Time;durP1;ratioP1;P1;durP2;ratioP2;P2;SDS_P1;SDS_P2;PMS_P1;PMS_P2;Temp;Humidity;BMP_temperature;BMP_pressure;BME280_temperature;BME280_humidity;BME280_pressure;Samples;Min_cycle;Max_cycle;Signal;HPM_P1;HPM_P2
2023/01/03 00:01:45;;;;;;;11.07;7.07;;;7.90;99.90;;;;;;4978161;28;20279;-82
2023/01/03 00:04:11;;;;;;;13.30;7.50;;;7.80;99.90;;;;;;4979117;28;20164;-82
2023/01/03 00:06:42;;;;;;;9.47;6.20;;;7.80;99.90;;;;;;4978461;28;20222;-83
2023/01/03 00:09:10;;;;;;;7.90;6.20;;;7.90;99.90;;;;;;4980052;28;20271;-82
2023/01/03 00:14:26;;;;;;;8.93;6.00;;;7.80;99.90;;;;;;4978059;28;20247;-81
2023/01/03 00:16:58;;;;;;;11.87;6.67;;;7.70;99.90;;;;;;4965196;28;20274;-81
2023/01/03 00:19:26;;;;;;;10.77;7.13;;;7.70;99.90;;;;;;4978125;28;20409;-82
2023/01/03 00:21:54;;;;;;;9.87;7.17;;;7.70;99.90;;;;;;4979927;28;20210;-81
2023/01/03 00:24:20;;;;;;;11.90;6.77;;;7.70;99.90;;;;;;4979845;28;20171;-81
2023/01/03 00:26:46;;;;;;;11.23;6.83;;;7.70;99.90;;;;;;4978815;28;20176;-82
2023/01/03 00:29:13;;;;;;;9.13;7.10;;;7.70;99.90;;;;;;4977774;28;20180;-81
2023/01/03 00:31:40;;;;;;;11.60;7.13;;;7.80;99.90;;;;;;4977208;28;20198;-80
2023/01/03 00:34:06;;;;;;;10.30;7.30;;;8.00;99.90;;;;;;4977746;28;20179;-82
2023/01/03 00:36:32;;;;;;;11.47;7.50;;;7.90;99.90;;;;;;4979256;28;20165;-83
2023/01/03 00:38:58;;;;;;;9.60;7.97;;;7.90;99.90;;;;;;4978756;28;20652;-82
2023/01/03 00:41:24;;;;;;;13.30;8.17;;;7.90;99.90;;;;;;4976734;28;20563;-81
2023/01/03 00:43:49;;;;;;;11.50;7.83;;;7.70;99.90;;;;;;4977915;28;20175;-82
2023/01/03 00:46:17;;;;;;;12.07;8.77;;;7.70;99.90;;;;;;4976413;28;20275;-81
2023/01/03 00:48:43;;;;;;;12.43;8.93;;;7.60;99.90;;;;;;4980406;28;20176;-81
2023/01/03 00:51:17;;;;;;;15.77;10.70;;;7.70;99.90;;;;;;4976863;28;20218;-82
2023/01/03 00:53:45;;;;;;;13.37;10.80;;;7.60;99.90;;;;;;4978513;28;20173;-82
2023/01/03 00:56:14;;;;;;;13.37;10.77;;;7.70;99.90;;;;;;4978636;28;20683;-83
2023/01/03 00:58:40;;;;;;;12.90;10.57;;;7.70;99.90;;;;;;4976872;28;20612;-82
2023/01/03 01:01:09;;;;;;;15.40;10.60;;;7.70;99.90;;;;;;4976721;28;20204;-82
2023/01/03 01:03:37;;;;;;;15.67;11.53;;;7.80;99.90;;;;;;4977581;28;20210;-82
2023/01/03 01:06:16;;;;;;;16.27;11.83;;;7.90;99.90;;;;;;4977666;28;20646;-82
2023/01/03 01:08:43;;;;;;;14.70;10.63;;;7.90;99.90;;;;;;4979366;28;20168;-83
2023/01/03 01:11:09;;;;;;;13.40;9.60;;;7.80;99.90;;;;;;4976585;28;20190;-83
2023/01/03 01:13:36;;;;;;;12.60;8.93;;;7.60;99.90;;;;;;4975659;28;20176;-82
2023/01/03 01:16:08;;;;;;;12.60;8.57;;;7.60;99.90;;;;;;4975408;28;20210;-82
2023/01/03 01:18:35;;;;;;;10.67;8.47;;;7.60;99.90;;;;;;4978870;28;20233;-82
2023/01/03 01:21:15;;;;;;;13.97;8.30;;;7.60;99.90;;;;;;4977801;28;20676;-83
2023/01/03 01:23:41;;;;;;;13.00;8.73;;;7.50;99.90;;;;;;4979592;28;20195;-83
2023/01/03 01:26:10;;;;;;;12.73;8.23;;;7.60;99.90;;;;;;4975915;28;20171;-82
2023/01/03 01:28:41;;;;;;;10.57;8.00;;;7.50;99.90;;;;;;4977124;28;20180;-81
2023/01/03 01:31:09;;;;;;;13.00;7.77;;;7.50;99.90;;;;;;4966995;28;20187;-82
2023/01/03 01:33:36;;;;;;;14.53;8.20;;;7.50;99.90;;;;;;4979437;28;20663;-82
2023/01/03 01:36:16;;;;;;;11.27;8.03;;;7.60;99.90;;;;;;4976459;28;20187;-83
2023/01/03 01:38:43;;;;;;;13.70;7.40;;;7.60;99.90;;;;;;4975097;28;20199;-81
2023/01/03 01:41:13;;;;;;;11.07;7.33;;;7.70;99.90;;;;;;4976054;28;20804;-81
2023/01/03 01:44:39;;;;;;;13.47;7.20;;;7.60;99.90;;;;;;4975499;28;20172;-83
2023/01/03 01:47:26;;;;;;;11.53;7.37;;;7.60;99.90;;;;;;4975862;28;20554;-81
2023/01/03 01:50:10;;;;;;;11.07;7.20;;;7.60;99.90;;;;;;4978915;28;20263;-83
2023/01/03 01:52:38;;;;;;;12.00;7.77;;;7.60;99.90;;;;;;5015449;28;20214;-83
2023/01/03 01:55:14;;;;;;;11.57;7.77;;;7.60;99.90;;;;;;5014675;28;20253;-81
2023/01/03 01:57:41;;;;;;;11.03;7.40;;;7.80;99.90;;;;;;5007914;28;20198;-81
2023/01/03 02:00:08;;;;;;;11.43;8.43;;;7.80;99.90;;;;;;5000385;28;20620;-82
2023/01/03 02:02:54;;;;;;;13.03;7.93;;;8.00;99.90;;;;;;4993726;28;20222;-82
2023/01/03 02:05:20;;;;;;;11.97;7.80;;;8.00;99.90;;;;;;4995156;28;20178;-82
2023/01/03 02:07:48;;;;;;;14.03;8.13;;;8.10;99.90;;;;;;4993463;28;20187;-81
2023/01/03 02:10:15;;;;;;;11.73;7.80;;;8.10;99.90;;;;;;4993444;28;20193;-82
2023/01/03 02:13:04;;;;;;;11.63;7.27;;;8.20;99.90;;;;;;4991893;28;20718;-82
2023/01/03 02:16:10;;;;;;;10.67;7.53;;;8.20;99.90;;;;;;4974372;28;20175;-82
2023/01/03 02:19:18;;;;;;;10.40;7.83;;;8.20;99.90;;;;;;4993788;28;20576;-80
2023/01/03 02:22:11;;;;;;;9.63;6.80;;;8.40;93.40;;;;;;4993530;28;20210;-82
2023/01/03 02:24:59;;;;;;;9.47;7.83;;;8.40;89.30;;;;;;4994343;28;20175;-81
2023/01/03 02:27:48;;;;;;;11.87;7.27;;;8.30;88.10;;;;;;4994301;28;20171;-83
2023/01/03 02:30:28;;;;;;;11.47;7.50;;;8.10;90.00;;;;;;4994224;28;20635;-82
2023/01/03 02:33:28;;;;;;;13.73;7.30;;;8.00;92.10;;;;;;4995035;28;20167;-82
2023/01/03 02:36:31;;;;;;;11.83;7.27;;;8.00;93.30;;;;;;4994045;28;20179;-81
2023/01/03 02:39:00;;;;;;;11.57;7.47;;;7.90;95.00;;;;;;4989792;28;20203;-83
2023/01/03 02:41:42;;;;;;;10.87;7.03;;;7.90;96.10;;;;;;4993211;28;20214;-81
2023/01/03 02:44:18;;;;;;;10.83;7.03;;;7.90;96.50;;;;;;4993714;28;20227;-81
2023/01/03 02:47:06;;;;;;;15.63;6.70;;;7.80;96.60;;;;;;5008137;28;20217;-82
2023/01/03 02:49:40;;;;;;;12.33;6.93;;;7.80;97.70;;;;;;5000912;28;20170;-84
2023/01/03 02:52:18;;;;;;;12.63;7.10;;;7.80;98.40;;;;;;4994250;28;20249;-80
2023/01/03 02:54:59;;;;;;;10.87;6.30;;;7.90;98.70;;;;;;4993690;28;20255;-81
2023/01/03 02:57:33;;;;;;;11.00;6.50;;;7.90;98.60;;;;;;4994928;28;20189;-81
2023/01/03 03:00:11;;;;;;;10.97;6.30;;;8.00;98.50;;;;;;4992804;28;20201;-83
2023/01/03 03:02:38;;;;;;;9.77;6.80;;;8.00;97.90;;;;;;5005394;28;20210;-81
2023/01/03 03:05:09;;;;;;;14.27;6.93;;;7.90;97.80;;;;;;5009721;28;20198;-83
2023/01/03 03:07:38;;;;;;;10.83;6.30;;;7.90;97.80;;;;;;4994706;28;20183;-82
2023/01/03 03:13:22;;;;;;;9.60;6.33;;;7.80;98.40;;;;;;4995987;28;20178;-82
2023/01/03 03:16:46;;;;;;;11.17;6.17;;;7.60;99.00;;;;;;4994540;28;20175;-83
2023/01/03 03:24:58;;;;;;;9.00;5.53;;;7.70;99.10;;;;;;4993852;28;20208;-82
2023/01/03 03:30:38;;;;;;;8.87;5.10;;;7.50;99.60;;;;;;5007935;28;20178;-82
2023/01/03 03:33:06;;;;;;;6.13;4.60;;;7.50;99.90;;;;;;5005534;28;20607;-83
2023/01/03 03:35:56;;;;;;;9.57;4.37;;;7.70;99.90;;;;;;5001765;28;20233;-82
2023/01/03 03:38:38;;;;;;;5.97;4.40;;;7.50;99.90;;;;;;5003252;28;20199;-82
2023/01/03 03:47:17;;;;;;;6.57;4.20;;;7.40;99.90;;;;;;4993660;28;20230;-82
2023/01/03 03:49:47;;;;;;;5.23;4.53;;;7.40;99.90;;;;;;4998019;28;20175;-83
2023/01/03 03:52:16;;;;;;;6.20;4.00;;;7.30;99.90;;;;;;4998575;28;20705;-83
2023/01/03 03:54:54;;;;;;;7.77;4.10;;;7.30;99.90;;;;;;4996617;28;20178;-83
2023/01/03 03:57:34;;;;;;;6.57;4.07;;;7.30;99.90;;;;;;4996797;28;20178;-82
2023/01/03 04:00:06;;;;;;;7.47;4.50;;;7.40;99.90;;;;;;4997456;28;20270;-82
2023/01/03 04:02:33;;;;;;;7.77;4.70;;;7.40;99.90;;;;;;4996580;28;20202;-80
2023/01/03 04:05:02;;;;;;;7.47;4.90;;;7.40;99.90;;;;;;4996782;28;20281;-81
2023/01/03 04:07:28;;;;;;;5.70;4.53;;;7.50;99.90;;;;;;4996674;28;20198;-82
2023/01/03 04:09:54;;;;;;;6.87;4.57;;;7.30;99.90;;;;;;4978584;28;20546;-81
2023/01/03 04:12:20;;;;;;;8.97;4.50;;;7.40;99.90;;;;;;4977196;28;20172;-81
2023/01/03 04:14:46;;;;;;;8.57;4.60;;;7.30;99.90;;;;;;4979612;28;20175;-82
2023/01/03 04:17:21;;;;;;;9.70;5.00;;;7.20;99.90;;;;;;4980899;28;20194;-82
2023/01/03 04:19:47;;;;;;;7.33;4.90;;;7.20;99.90;;;;;;4982367;28;20183;-83
2023/01/03 04:22:12;;;;;;;7.77;4.93;;;7.40;99.90;;;;;;4997920;28;20229;-82
2023/01/03 04:24:38;;;;;;;7.73;5.07;;;7.30;99.90;;;;;;5016059;28;20247;-81
2023/01/03 04:27:07;;;;;;;9.40;5.50;;;7.40;99.90;;;;;;5004828;28;20182;-82
2023/01/03 04:29:32;;;;;;;8.10;5.17;;;7.30;99.90;;;;;;5002576;28;20270;-83
2023/01/03 04:32:00;;;;;;;8.13;5.43;;;7.40;99.90;;;;;;4996214;28;20206;-81
2023/01/03 04:34:26;;;;;;;8.43;5.53;;;7.40;99.90;;;;;;4999717;28;20179;-81
2023/01/03 04:36:51;;;;;;;8.10;5.70;;;7.40;99.90;;;;;;4998640;28;20321;-81
2023/01/03 04:39:17;;;;;;;9.80;6.17;;;7.40;99.90;;;;;;4995654;28;20183;-81
2023/01/03 04:41:43;;;;;;;9.83;6.20;;;7.30;99.90;;;;;;4977587;28;20212;-81
2023/01/03 04:44:08;;;;;;;12.83;6.40;;;7.50;99.90;;;;;;4977159;28;20647;-81
2023/01/03 04:46:38;;;;;;;10.33;6.63;;;7.40;99.90;;;;;;4974898;28;20186;-81
2023/01/03 04:49:05;;;;;;;9.67;6.70;;;7.50;99.90;;;;;;4977431;28;20175;-81
2023/01/03 04:51:32;;;;;;;11.73;6.73;;;7.40;99.90;;;;;;4979691;28;20625;-81
2023/01/03 04:54:00;;;;;;;10.73;7.23;;;7.40;99.90;;;;;;4979693;28;20199;-82
2023/01/03 04:56:29;;;;;;;15.57;7.10;;;7.30;99.90;;;;;;4982182;28;20179;-81
2023/01/03 04:59:01;;;;;;;11.90;7.50;;;7.30;99.90;;;;;;4968076;28;20184;-82
2023/01/03 05:01:30;;;;;;;12.10;7.57;;;7.20;99.90;;;;;;4970128;28;20208;-82
2023/01/03 05:03:59;;;;;;;10.83;7.43;;;7.30;99.90;;;;;;4988891;28;20295;-81
2023/01/03 05:06:31;;;;;;;9.97;7.40;;;7.30;99.90;;;;;;4988969;28;20176;-81
2023/01/03 05:08:59;;;;;;;13.33;8.80;;;7.30;99.90;;;;;;4992476;28;20275;-82
2023/01/03 05:11:24;;;;;;;12.50;8.13;;;7.20;99.90;;;;;;4986543;28;20239;-82
2023/01/03 05:13:53;;;;;;;9.93;8.17;;;7.20;99.90;;;;;;4985938;28;20176;-81
2023/01/03 05:16:19;;;;;;;15.20;9.30;;;7.20;99.90;;;;;;4980621;28;20176;-81
2023/01/03 05:18:48;;;;;;;13.77;9.30;;;7.20;99.90;;;;;;4983469;28;20223;-82
2023/01/03 05:26:50;;;;;;;14.60;9.60;;;7.20;99.90;;;;;;5009427;28;20170;-83
2023/01/03 05:29:19;;;;;;;14.53;10.17;;;7.20;99.90;;;;;;5007149;28;20237;-81
2023/01/03 05:31:46;;;;;;;14.33;10.60;;;7.20;99.90;;;;;;5006908;28;20171;-81
2023/01/03 05:34:14;;;;;;;16.13;10.50;;;7.20;99.90;;;;;;5004788;28;20707;-83
2023/01/03 05:36:40;;;;;;;15.73;10.10;;;7.10;99.90;;;;;;5001302;28;20616;-83
2023/01/03 05:39:06;;;;;;;16.07;10.67;;;7.20;99.90;;;;;;4999041;28;20243;-82
2023/01/03 05:44:17;;;;;;;14.50;10.77;;;7.30;99.90;;;;;;4996547;28;20556;-83
2023/01/03 05:46:43;;;;;;;15.97;11.53;;;7.40;99.90;;;;;;4994737;28;20269;-82
2023/01/03 05:49:10;;;;;;;14.83;11.70;;;7.40;99.90;;;;;;4995217;28;20186;-82
2023/01/03 05:51:35;;;;;;;13.23;10.73;;;7.40;99.90;;;;;;4994844;28;20286;-82
2023/01/03 05:54:01;;;;;;;18.23;12.20;;;7.50;99.90;;;;;;4994455;28;20598;-82
2023/01/03 05:56:26;;;;;;;17.27;11.77;;;7.40;99.90;;;;;;4986374;28;20659;-82
2023/01/03 05:58:53;;;;;;;17.97;10.63;;;7.50;99.90;;;;;;4976962;28;20175;-82
2023/01/03 06:01:20;;;;;;;15.13;11.07;;;7.50;99.90;;;;;;4978450;28;20615;-82
2023/01/03 06:03:47;;;;;;;15.47;10.60;;;7.50;99.90;;;;;;4976369;28;20190;-82
2023/01/03 06:06:14;;;;;;;16.53;11.97;;;7.70;99.90;;;;;;4977606;28;20179;-83
2023/01/03 06:08:54;;;;;;;18.83;11.27;;;7.70;99.90;;;;;;4981255;28;20211;-80
2023/01/03 06:11:20;;;;;;;15.13;10.60;;;7.70;99.90;;;;;;4984242;28;20159;-83
2023/01/03 06:13:46;;;;;;;13.57;10.60;;;7.90;99.90;;;;;;4980384;28;20180;-82
2023/01/03 06:18:59;;;;;;;15.77;10.43;;;7.80;99.90;;;;;;4979593;28;20174;-83
2023/01/03 06:21:28;;;;;;;16.53;11.37;;;7.80;99.90;;;;;;4978421;28;20683;-83
2023/01/03 06:23:53;;;;;;;15.83;11.27;;;7.90;99.90;;;;;;4974293;28;20182;-81
2023/01/03 06:26:22;;;;;;;15.30;11.20;;;7.90;99.90;;;;;;4974246;28;20552;-82
2023/01/03 06:28:48;;;;;;;14.40;10.63;;;7.90;99.90;;;;;;4973847;28;20186;-82
2023/01/03 06:31:14;;;;;;;13.57;10.00;;;7.90;99.90;;;;;;4974124;28;20635;-81
2023/01/03 06:33:40;;;;;;;12.63;10.33;;;7.90;99.90;;;;;;4979666;28;20171;-82
2023/01/03 06:36:12;;;;;;;14.40;10.63;;;8.00;99.90;;;;;;4994712;28;20179;-82
2023/01/03 06:38:39;;;;;;;13.17;9.53;;;7.90;99.90;;;;;;4994282;28;20206;-82
2023/01/03 06:41:05;;;;;;;13.03;9.50;;;7.90;99.90;;;;;;4982255;28;20210;-83
2023/01/03 06:43:31;;;;;;;11.23;8.87;;;8.00;99.90;;;;;;4973798;28;20180;-82
2023/01/03 06:54:30;;;;;;;13.50;9.37;;;7.90;99.90;;;;;;4997386;28;20661;-82
2023/01/03 06:56:56;;;;;;;10.27;7.67;;;8.00;99.90;;;;;;4994394;28;20171;-82
2023/01/03 06:59:25;;;;;;;10.97;8.63;;;8.00;99.90;;;;;;4993359;28;20207;-84
2023/01/03 07:01:51;;;;;;;11.20;9.07;;;8.00;99.90;;;;;;4994734;28;20199;-84
2023/01/03 07:04:18;;;;;;;9.67;8.00;;;8.00;99.90;;;;;;4979775;28;20553;-84
2023/01/03 07:06:47;;;;;;;11.83;8.37;;;8.10;99.90;;;;;;4973677;28;20196;-82
2023/01/03 07:09:13;;;;;;;11.07;8.03;;;8.00;99.90;;;;;;4975285;28;20187;-82
2023/01/03 07:11:39;;;;;;;12.93;7.60;;;8.20;99.90;;;;;;4982390;28;20551;-82
2023/01/03 07:14:07;;;;;;;12.00;7.87;;;8.10;99.90;;;;;;4985169;28;20663;-82
2023/01/03 07:16:35;;;;;;;8.80;7.43;;;8.10;99.90;;;;;;4978105;28;20203;-82
2023/01/03 07:19:02;;;;;;;11.50;7.97;;;8.20;99.90;;;;;;4977901;28;20171;-81
2023/01/03 07:21:29;;;;;;;14.07;7.80;;;8.10;99.90;;;;;;4977462;28;20219;-82
2023/01/03 07:23:57;;;;;;;11.00;7.43;;;8.30;99.90;;;;;;4979466;28;20275;-82
2023/01/03 07:26:23;;;;;;;11.37;7.13;;;8.30;99.90;;;;;;4981283;28;20175;-81
2023/01/03 07:28:50;;;;;;;10.00;6.77;;;8.30;99.90;;;;;;4978667;28;20192;-82
2023/01/03 07:31:16;;;;;;;11.27;6.57;;;8.30;99.90;;;;;;4977723;28;20612;-81
2023/01/03 07:33:41;;;;;;;8.80;6.70;;;8.30;99.90;;;;;;4977198;28;20289;-81
2023/01/03 07:36:09;;;;;;;12.13;6.77;;;8.30;99.90;;;;;;4982235;28;20567;-81
2023/01/03 07:38:36;;;;;;;9.47;6.50;;;8.30;99.90;;;;;;4983070;28;20715;-80
2023/01/03 07:41:02;;;;;;;12.97;7.60;;;8.40;99.90;;;;;;4985073;28;20214;-82
2023/01/03 07:43:37;;;;;;;11.23;7.87;;;8.30;99.90;;;;;;4979855;28;20231;-83
2023/01/03 07:46:06;;;;;;;11.57;6.63;;;8.50;99.90;;;;;;4978044;28;20179;-82
2023/01/03 07:48:33;;;;;;;8.93;6.17;;;8.50;99.90;;;;;;4978294;28;20174;-83
2023/01/03 07:50:58;;;;;;;12.40;7.07;;;8.50;99.90;;;;;;4976584;28;20666;-83
2023/01/03 07:53:25;;;;;;;11.17;6.77;;;8.50;99.90;;;;;;4976434;28;20275;-83
2023/01/03 07:55:50;;;;;;;10.57;6.90;;;8.50;99.90;;;;;;4976297;28;20636;-83
2023/01/03 07:58:16;;;;;;;12.27;7.40;;;8.50;99.90;;;;;;4975942;28;20234;-83
2023/01/03 08:00:43;;;;;;;13.30;7.50;;;8.50;99.90;;;;;;4986721;28;20167;-80
2023/01/03 08:03:09;;;;;;;10.63;7.27;;;8.50;99.90;;;;;;4989130;28;20199;-82
2023/01/03 08:05:37;;;;;;;13.57;7.70;;;8.60;99.90;;;;;;4993328;28;20198;-82
2023/01/03 08:08:03;;;;;;;12.17;7.67;;;8.60;99.90;;;;;;4997458;28;20195;-80
2023/01/03 08:13:18;;;;;;;12.10;7.73;;;8.60;99.90;;;;;;4981065;28;20546;-83
2023/01/03 08:15:54;;;;;;;14.53;8.13;;;8.80;99.90;;;;;;4976684;28;20263;-82
2023/01/03 08:18:27;;;;;;;13.17;8.00;;;8.80;99.90;;;;;;4976430;28;20183;-83
2023/01/03 08:20:55;;;;;;;13.13;8.70;;;8.80;99.90;;;;;;4976216;28;20171;-83
2023/01/03 08:23:22;;;;;;;13.40;9.00;;;8.80;99.90;;;;;;4977124;28;20723;-81
2023/01/03 08:25:47;;;;;;;13.00;9.03;;;8.80;99.90;;;;;;4976430;28;20631;-83
2023/01/03 08:28:13;;;;;;;12.03;8.37;;;8.80;99.90;;;;;;4976148;28;20195;-82
2023/01/03 08:30:46;;;;;;;15.47;8.70;;;8.80;99.90;;;;;;4975731;28;20639;-82
2023/01/03 08:33:14;;;;;;;11.50;8.37;;;8.80;99.90;;;;;;4976102;28;20586;-82
2023/01/03 08:35:44;;;;;;;15.07;8.00;;;8.80;99.90;;;;;;4976179;28;20658;-82
2023/01/03 08:38:15;;;;;;;15.40;8.70;;;8.70;99.90;;;;;;4977953;28;20168;-81
2023/01/03 08:40:44;;;;;;;15.73;8.80;;;8.80;99.90;;;;;;4976091;28;20243;-80
2023/01/03 08:43:11;;;;;;;14.83;8.90;;;9.00;99.90;;;;;;4976623;28;20199;-81
2023/01/03 08:45:37;;;;;;;13.73;8.53;;;9.00;99.90;;;;;;4976177;28;20624;-81
2023/01/03 08:48:05;;;;;;;14.63;9.10;;;9.10;99.90;;;;;;4976817;28;20183;-83
2023/01/03 08:50:32;;;;;;;16.53;9.57;;;9.00;99.90;;;;;;4978459;28;20191;-80
2023/01/03 08:52:58;;;;;;;17.93;9.97;;;9.00;99.90;;;;;;4979129;28;20196;-81
2023/01/03 08:55:24;;;;;;;13.90;9.80;;;8.90;99.90;;;;;;4977474;28;20176;-81
2023/01/03 08:57:50;;;;;;;13.23;8.97;;;8.90;99.90;;;;;;4979369;28;20203;-82
2023/01/03 09:00:16;;;;;;;15.47;9.53;;;9.10;99.90;;;;;;4980004;28;20191;-82
2023/01/03 09:02:42;;;;;;;16.00;10.10;;;8.80;99.90;;;;;;4981114;28;20270;-82
2023/01/03 09:05:09;;;;;;;13.80;9.13;;;8.70;99.90;;;;;;4980646;28;20644;-83
2023/01/03 09:07:34;;;;;;;17.43;10.47;;;8.70;99.90;;;;;;4980288;28;20215;-83
2023/01/03 09:10:01;;;;;;;14.37;10.43;;;8.60;99.90;;;;;;4982304;28;20172;-82
2023/01/03 09:12:28;;;;;;;16.10;10.60;;;8.50;99.90;;;;;;4981888;28;20168;-85
2023/01/03 09:14:56;;;;;;;14.77;10.43;;;8.50;99.90;;;;;;4964151;28;20180;-81
2023/01/03 09:17:22;;;;;;;14.10;10.30;;;8.50;99.90;;;;;;4980203;28;20172;-81
2023/01/03 09:19:47;;;;;;;14.30;9.80;;;8.60;99.90;;;;;;4981365;28;20185;-82
2023/01/03 09:22:13;;;;;;;18.13;12.10;;;8.50;99.90;;;;;;4979578;28;20205;-83
2023/01/03 09:24:38;;;;;;;18.27;11.60;;;8.60;99.90;;;;;;4979468;28;20206;-83
2023/01/03 09:27:04;;;;;;;16.47;11.10;;;8.60;99.90;;;;;;4977665;28;20183;-83
2023/01/03 09:29:30;;;;;;;15.10;9.80;;;8.50;99.90;;;;;;4977585;28;20175;-82
2023/01/03 09:31:56;;;;;;;15.80;9.90;;;8.40;99.90;;;;;;4977181;28;20191;-82
2023/01/03 09:34:22;;;;;;;13.33;8.73;;;8.50;99.90;;;;;;4978378;28;20542;-82
2023/01/03 09:36:48;;;;;;;12.83;8.40;;;8.40;99.90;;;;;;4978909;28;20179;-83
2023/01/03 09:39:15;;;;;;;16.60;8.47;;;8.40;99.90;;;;;;4981858;28;20172;-81
2023/01/03 09:41:43;;;;;;;16.20;7.37;;;8.50;99.90;;;;;;4977889;28;20298;-82
2023/01/03 09:44:09;;;;;;;10.73;6.70;;;8.40;99.90;;;;;;4979766;28;20164;-83
2023/01/03 09:46:36;;;;;;;10.57;7.50;;;8.40;99.90;;;;;;4983517;28;20274;-81
2023/01/03 09:49:04;;;;;;;56.23;50.30;;;8.40;99.90;;;;;;4986444;28;20293;-80
2023/01/03 10:03:43;;;;;;;9.47;6.90;;;8.40;99.90;;;;;;4988195;28;20227;-82
2023/01/03 10:06:40;;;;;;;10.77;6.67;;;8.50;99.90;;;;;;4997730;28;20168;-82
2023/01/03 10:09:27;;;;;;;8.93;6.20;;;8.50;99.90;;;;;;4998325;28;20175;-82
2023/01/03 10:12:50;;;;;;;9.03;6.47;;;8.50;99.90;;;;;;4992661;28;20206;-81
2023/01/03 10:18:53;;;;;;;9.03;5.43;;;8.60;99.90;;;;;;4980116;28;20190;-83
2023/01/03 10:21:52;;;;;;;11.33;5.10;;;8.60;99.90;;;;;;4978688;28;20207;-83
2023/01/03 10:24:27;;;;;;;9.53;5.80;;;8.60;99.90;;;;;;4968294;28;20699;-81
2023/01/03 10:27:16;;;;;;;13.37;6.20;;;8.60;99.90;;;;;;4976591;28;20179;-82
2023/01/03 10:29:46;;;;;;;8.57;4.30;;;8.70;99.90;;;;;;4978009;28;20183;-82
2023/01/03 10:32:52;;;;;;;9.07;4.67;;;8.70;99.90;;;;;;4977750;28;20206;-84
2023/01/03 10:35:24;;;;;;;9.20;5.33;;;8.80;99.90;;;;;;4944466;29;20196;-82
2023/01/03 10:37:53;;;;;;;8.00;4.50;;;8.90;99.90;;;;;;4962920;28;20268;-81
2023/01/03 10:40:30;;;;;;;9.83;5.17;;;9.00;99.90;;;;;;4961147;28;20287;-82
2023/01/03 10:42:57;;;;;;;8.00;4.80;;;8.80;99.90;;;;;;4960057;28;20298;-84
2023/01/03 10:45:25;;;;;;;9.30;4.70;;;8.80;99.90;;;;;;4957244;28;20199;-82
2023/01/03 10:47:59;;;;;;;9.17;4.33;;;8.70;99.90;;;;;;4958171;28;20247;-83
2023/01/03 10:50:25;;;;;;;6.13;4.30;;;8.90;99.90;;;;;;4958264;29;20180;-84
2023/01/03 10:53:05;;;;;;;9.40;4.80;;;8.90;99.90;;;;;;4966684;28;20198;-84
2023/01/03 10:55:53;;;;;;;9.37;4.67;;;9.00;99.90;;;;;;4965003;28;20164;-83
2023/01/03 10:58:27;;;;;;;7.30;4.13;;;9.00;99.90;;;;;;4961811;28;20184;-84
2023/01/03 11:01:08;;;;;;;8.83;4.53;;;9.10;99.90;;;;;;4959829;28;20180;-81
2023/01/03 11:03:43;;;;;;;6.00;4.30;;;9.10;99.90;;;;;;4973914;28;20186;-81
2023/01/03 11:06:14;;;;;;;11.50;5.57;;;9.10;99.90;;;;;;4985961;28;20510;-82
2023/01/03 11:09:01;;;;;;;6.03;3.80;;;9.10;99.90;;;;;;4970906;28;20175;-83
2023/01/03 11:11:33;;;;;;;7.70;4.17;;;9.10;99.90;;;;;;4981625;28;20646;-83
2023/01/03 11:14:25;;;;;;;7.50;4.43;;;9.10;99.90;;;;;;4983305;28;20180;-86
2023/01/03 11:17:04;;;;;;;9.10;4.70;;;9.10;99.90;;;;;;4982999;28;20175;-83
2023/01/03 11:19:32;;;;;;;6.87;4.83;;;9.20;99.90;;;;;;4981188;28;20203;-84
2023/01/03 11:22:12;;;;;;;7.60;3.93;;;9.20;99.90;;;;;;4977367;28;20294;-82
2023/01/03 11:24:50;;;;;;;8.07;4.63;;;9.20;99.90;;;;;;4985436;28;20182;-84
2023/01/03 11:27:46;;;;;;;7.93;4.53;;;9.30;99.90;;;;;;4979020;28;20171;-83
2023/01/03 11:30:50;;;;;;;8.37;4.17;;;9.20;99.90;;;;;;4972210;28;20191;-83
2023/01/03 11:33:35;;;;;;;9.30;4.30;;;9.30;99.90;;;;;;4999994;28;20186;-81
2023/01/03 11:36:15;;;;;;;6.53;4.27;;;9.30;99.90;;;;;;4987613;28;20190;-82
2023/01/03 11:39:18;;;;;;;7.97;4.47;;;9.30;99.90;;;;;;4994955;28;20190;-84
2023/01/03 11:41:59;;;;;;;8.37;4.27;;;9.30;99.90;;;;;;4974779;28;20670;-83
2023/01/03 11:44:54;;;;;;;10.50;4.73;;;9.30;99.90;;;;;;4980679;28;20198;-83
2023/01/03 11:47:39;;;;;;;10.10;4.50;;;9.40;99.90;;;;;;4983527;28;20175;-85
2023/01/03 11:50:40;;;;;;;6.00;4.07;;;9.50;99.90;;;;;;4985062;28;20187;-85
2023/01/03 11:53:36;;;;;;;8.90;4.40;;;9.40;99.90;;;;;;4988212;28;20197;-85
2023/01/03 11:56:35;;;;;;;11.57;4.83;;;9.40;99.90;;;;;;4954385;28;20338;-84
2023/01/03 11:59:52;;;;;;;12.00;4.60;;;9.50;99.90;;;;;;4962201;29;20188;-85
2023/01/03 12:02:35;;;;;;;8.87;4.60;;;9.70;99.90;;;;;;4958142;29;20235;-84
2023/01/03 12:05:37;;;;;;;7.37;3.67;;;9.80;99.90;;;;;;4975521;28;20199;-85
2023/01/03 12:08:42;;;;;;;8.00;4.30;;;9.70;99.90;;;;;;4969735;28;20174;-84
2023/01/03 12:11:32;;;;;;;8.47;4.27;;;9.60;99.90;;;;;;4970226;28;20189;-84
2023/01/03 12:14:22;;;;;;;9.83;3.90;;;9.60;99.90;;;;;;4984163;28;20203;-83
2023/01/03 12:17:03;;;;;;;9.53;4.13;;;9.70;99.90;;;;;;4989204;28;20172;-82
2023/01/03 12:19:48;;;;;;;7.87;4.13;;;9.70;99.90;;;;;;4981292;28;20180;-84
2023/01/03 12:22:36;;;;;;;13.10;4.30;;;9.70;99.90;;;;;;4982399;28;20279;-83
2023/01/03 12:25:26;;;;;;;9.80;3.80;;;9.80;99.90;;;;;;4990089;28;20181;-85
2023/01/03 12:28:06;;;;;;;8.00;3.63;;;9.80;99.90;;;;;;4982562;28;20175;-84
2023/01/03 12:31:24;;;;;;;9.90;4.10;;;9.80;99.90;;;;;;4979994;28;20211;-83
2023/01/03 12:34:17;;;;;;;8.57;4.87;;;10.00;98.70;;;;;;4963871;29;20606;-85
2023/01/03 12:37:21;;;;;;;9.43;4.13;;;10.00;98.70;;;;;;4978785;28;20179;-87
2023/01/03 12:39:58;;;;;;;9.80;4.67;;;9.90;99.90;;;;;;5007080;28;20207;-84
2023/01/03 12:42:55;;;;;;;8.13;5.73;;;9.90;99.90;;;;;;4986558;28;20207;-81
2023/01/03 12:45:55;;;;;;;8.07;3.87;;;9.90;99.90;;;;;;4988873;28;20191;-83
2023/01/03 12:48:52;;;;;;;20.80;8.60;;;10.00;99.90;;;;;;4974834;28;20172;-84
2023/01/03 12:51:35;;;;;;;6.97;4.17;;;10.00;99.50;;;;;;4963317;29;20259;-86
2023/01/03 12:54:31;;;;;;;6.87;3.30;;;9.90;99.70;;;;;;4959584;29;20196;-84
2023/01/03 12:57:19;;;;;;;9.10;3.37;;;9.90;99.60;;;;;;4961094;28;20292;-84
2023/01/03 13:00:18;;;;;;;7.50;3.50;;;9.80;99.90;;;;;;4991077;28;20292;-85
2023/01/03 13:03:11;;;;;;;8.03;3.47;;;9.80;99.90;;;;;;4959924;28;20220;-85
2023/01/03 13:05:49;;;;;;;11.93;3.50;;;9.80;99.90;;;;;;4977619;28;20175;-85
2023/01/03 13:08:28;;;;;;;8.50;3.40;;;9.90;99.90;;;;;;4975425;28;20362;-85
2023/01/03 13:11:02;;;;;;;8.40;2.97;;;9.90;99.90;;;;;;4976649;28;20211;-84
2023/01/03 13:13:29;;;;;;;7.60;3.00;;;9.90;99.90;;;;;;4976145;28;20176;-84
2023/01/03 13:16:35;;;;;;;6.60;3.00;;;10.00;99.90;;;;;;4977191;28;20218;-86
2023/01/03 13:19:22;;;;;;;8.30;3.10;;;10.00;99.80;;;;;;4975073;28;20176;-84
2023/01/03 13:21:53;;;;;;;8.70;3.57;;;9.90;99.40;;;;;;4975641;28;20203;-85
2023/01/03 13:24:43;;;;;;;12.77;4.20;;;9.90;99.60;;;;;;4974703;28;20243;-85
2023/01/03 13:27:24;;;;;;;6.47;3.93;;;9.90;99.60;;;;;;4975230;28;20646;-85
2023/01/03 13:29:57;;;;;;;9.53;4.20;;;10.00;98.90;;;;;;4975414;28;20207;-85
2023/01/03 13:32:22;;;;;;;6.53;3.20;;;10.00;98.90;;;;;;4979111;28;20595;-85
2023/01/03 13:34:57;;;;;;;8.80;3.70;;;10.00;99.10;;;;;;4979303;28;20167;-85
2023/01/03 13:37:24;;;;;;;8.90;3.87;;;10.10;98.90;;;;;;4976904;28;20223;-85
2023/01/03 13:39:49;;;;;;;8.20;3.47;;;10.20;99.20;;;;;;4976834;28;20632;-86
2023/01/03 13:42:22;;;;;;;11.83;4.27;;;10.00;98.60;;;;;;4975827;28;20228;-83
2023/01/03 13:44:48;;;;;;;10.10;4.07;;;10.10;98.70;;;;;;4976631;28;20171;-82
2023/01/03 13:47:36;;;;;;;12.00;5.03;;;10.10;98.30;;;;;;4974828;28;20192;-85
2023/01/03 13:50:02;;;;;;;10.93;4.97;;;10.10;99.20;;;;;;4975711;28;20752;-84
2023/01/03 13:52:54;;;;;;;10.50;4.73;;;10.10;99.30;;;;;;4977157;28;20179;-87
2023/01/03 13:55:43;;;;;;;12.90;4.13;;;10.10;99.10;;;;;;4975348;28;20175;-85
2023/01/03 13:58:39;;;;;;;11.97;5.03;;;10.10;99.00;;;;;;4967489;28;20311;-84
2023/01/03 14:01:20;;;;;;;11.93;4.70;;;10.00;98.40;;;;;;4956995;28;20187;-85
2023/01/03 14:04:11;;;;;;;6.80;3.73;;;10.00;97.90;;;;;;4956776;28;20183;-85
2023/01/03 14:06:58;;;;;;;10.80;4.97;;;9.90;97.50;;;;;;4958428;28;20177;-83
2023/01/03 14:09:50;;;;;;;14.10;5.23;;;10.00;97.90;;;;;;4955931;28;20180;-84
2023/01/03 14:12:45;;;;;;;12.77;4.30;;;10.00;97.30;;;;;;4959705;28;20214;-84
2023/01/03 14:15:18;;;;;;;10.73;4.67;;;10.00;97.60;;;;;;4976170;28;20179;-86
2023/01/03 14:17:47;;;;;;;10.63;4.63;;;10.00;97.50;;;;;;4974181;28;20243;-86
2023/01/03 14:20:28;;;;;;;9.40;4.93;;;9.90;97.80;;;;;;4974546;28;20172;-84
2023/01/03 14:22:58;;;;;;;10.87;4.90;;;9.90;98.30;;;;;;4973680;28;20734;-84
2023/01/03 14:25:39;;;;;;;11.67;4.87;;;9.90;98.60;;;;;;4973695;28;20175;-84